createdAt,value
2023-05-08T00:01:53.233Z,62.90
2023-05-08T00:04:21.423Z,61.60
2023-05-08T00:06:49.611Z,56.10
2023-05-08T00:09:18.049Z,54.00
2023-05-08T00:11:46.263Z,52.90
2023-05-08T00:14:14.754Z,51.40
2023-05-08T00:16:42.977Z,57.80
2023-05-08T00:19:11.248Z,60.60
2023-05-08T00:21:39.425Z,62.30
2023-05-08T00:24:07.974Z,63.90
2023-05-08T00:26:36.257Z,65.40
2023-05-08T00:29:06.418Z,64.00
2023-05-08T00:31:34.950Z,58.30
2023-05-08T00:34:03.308Z,55.80
2023-05-08T00:36:31.462Z,53.80
2023-05-08T00:38:59.704Z,52.70
2023-05-08T00:41:27.890Z,51.50
2023-05-08T00:43:56.012Z,50.40
2023-05-08T00:46:24.423Z,49.50
2023-05-08T00:48:53.388Z,48.50
2023-05-08T00:51:22.311Z,48.00
2023-05-08T00:53:51.009Z,47.70
2023-05-08T00:56:19.268Z,46.50
2023-05-08T00:58:48.404Z,46.50
2023-05-08T01:01:16.946Z,46.40
2023-05-08T01:03:45.580Z,46.30
2023-05-08T01:06:13.916Z,45.20
2023-05-08T01:08:45.529Z,49.40
2023-05-08T01:11:13.814Z,53.60
2023-05-08T01:14:12.668Z,56.20
2023-05-08T01:17:10.449Z,58.50
2023-05-08T01:19:58.606Z,60.70
2023-05-08T01:22:48.450Z,62.50
2023-05-08T01:25:34.851Z,63.50
2023-05-08T01:28:21.228Z,64.70
2023-05-08T01:31:18.079Z,58.20
2023-05-08T01:33:56.897Z,54.90
2023-05-08T01:36:30.278Z,53.00
2023-05-08T01:39:15.368Z,51.60
2023-05-08T01:42:10.277Z,50.30
2023-05-08T01:44:45.850Z,49.20
2023-05-08T01:47:16.381Z,48.40
2023-05-08T01:49:52.714Z,47.50
2023-05-08T01:52:35.253Z,53.90
2023-05-08T01:55:09.376Z,57.40
2023-05-08T01:57:51.642Z,59.60
2023-05-08T02:00:23.446Z,61.20
2023-05-08T02:02:52.843Z,62.90
2023-05-08T02:05:23.024Z,63.80
2023-05-08T02:07:52.931Z,65.60
2023-05-08T02:10:22.099Z,62.60
2023-05-08T02:12:51.474Z,57.40
2023-05-08T02:15:21.433Z,54.90
2023-05-08T02:17:52.839Z,53.30
2023-05-08T02:20:22.889Z,51.90
2023-05-08T02:22:52.434Z,50.70
2023-05-08T02:25:21.974Z,49.60
2023-05-08T02:27:53.933Z,48.60
2023-05-08T02:30:24.150Z,47.80
2023-05-08T02:32:54.786Z,47.00
2023-05-08T02:35:24.033Z,46.40
2023-05-08T02:37:56.866Z,50.20
2023-05-08T02:40:29.014Z,55.10
2023-05-08T02:42:57.547Z,57.40
2023-05-08T02:45:33.416Z,59.40
2023-05-08T02:48:12.750Z,61.10
2023-05-08T02:50:57.740Z,63.00
2023-05-08T02:53:38.487Z,63.90
2023-05-08T02:56:12.629Z,65.50
2023-05-08T02:58:46.592Z,62.60
2023-05-08T03:01:51.111Z,57.30
2023-05-08T03:04:30.577Z,55.20
2023-05-08T03:06:59.897Z,53.10
2023-05-08T03:09:37.465Z,52.10
2023-05-08T03:12:10.444Z,51.00
2023-05-08T03:14:45.018Z,57.20
2023-05-08T03:17:17.646Z,60.20
2023-05-08T03:19:53.052Z,62.10
2023-05-08T03:22:23.351Z,63.40
2023-05-08T03:24:54.264Z,65.00
2023-05-08T03:27:25.668Z,66.50
2023-05-08T03:29:56.027Z,64.50
2023-05-08T03:32:28.807Z,58.90
2023-05-08T03:35:00.207Z,56.10
2023-05-08T03:37:29.028Z,54.20
2023-05-08T03:39:57.302Z,53.30
2023-05-08T03:42:31.443Z,51.90
2023-05-08T03:45:01.426Z,50.60
2023-05-08T03:47:30.270Z,49.60
2023-05-08T03:49:58.307Z,53.60
2023-05-08T03:52:27.290Z,57.60
2023-05-08T03:54:56.065Z,60.00
2023-05-08T03:57:42.681Z,61.90
2023-05-08T04:00:22.759Z,63.30
2023-05-08T04:03:08.753Z,64.60
2023-05-08T04:05:44.132Z,66.20
2023-05-08T04:08:25.592Z,67.40
2023-05-08T04:11:23.191Z,60.30
2023-05-08T04:13:58.567Z,56.60
2023-05-08T04:16:36.136Z,54.70
2023-05-08T04:19:12.084Z,53.30
2023-05-08T04:21:43.760Z,52.10
2023-05-08T04:24:15.798Z,53.30
2023-05-08T04:26:46.929Z,59.20
2023-05-08T04:29:17.306Z,61.20
2023-05-08T04:31:47.330Z,63.20
2023-05-08T04:34:16.296Z,64.60
2023-05-08T04:36:44.684Z,65.80
2023-05-08T04:39:12.897Z,67.00
2023-05-08T04:41:41.459Z,67.50
2023-05-08T04:44:09.978Z,61.50
2023-05-08T04:46:38.375Z,57.80
2023-05-08T04:49:06.728Z,56.00
2023-05-08T04:51:35.040Z,54.50
2023-05-08T04:54:03.379Z,52.80
2023-05-08T04:56:31.780Z,51.40
2023-05-08T04:59:01.195Z,56.40
2023-05-08T05:01:29.533Z,60.20
2023-05-08T05:03:57.833Z,62.10
2023-05-08T05:06:26.231Z,63.90
2023-05-08T05:08:54.435Z,64.60
2023-05-08T05:11:23.020Z,66.00
2023-05-08T05:13:51.342Z,68.00
2023-05-08T05:16:19.624Z,66.10
2023-05-08T05:18:47.912Z,60.00
2023-05-08T05:21:16.383Z,57.40
2023-05-08T05:23:44.791Z,55.40
2023-05-08T05:26:13.289Z,53.90
2023-05-08T05:28:41.526Z,52.60
2023-05-08T05:31:10.247Z,51.50
2023-05-08T05:33:38.117Z,56.00
2023-05-08T05:36:06.980Z,59.60
2023-05-08T05:38:36.064Z,61.60
2023-05-08T05:41:04.470Z,63.30
2023-05-08T05:43:33.494Z,64.70
2023-05-08T05:46:08.961Z,66.10
2023-05-08T05:48:39.085Z,67.60
2023-05-08T05:51:10.115Z,68.40
2023-05-08T05:53:38.534Z,62.00
2023-05-08T05:56:07.345Z,58.50
2023-05-08T05:58:35.902Z,56.20
2023-05-08T06:01:04.410Z,54.50
2023-05-08T06:03:32.810Z,53.10
2023-05-08T06:06:01.351Z,53.00
2023-05-08T06:08:29.541Z,52.20
2023-05-08T06:10:57.757Z,51.60
2023-05-08T06:13:26.047Z,50.00
2023-05-08T06:15:58.250Z,49.50
2023-05-08T06:18:26.605Z,55.80
2023-05-08T06:21:01.032Z,58.60
2023-05-08T06:23:29.330Z,60.70
2023-05-08T06:25:57.599Z,62.20
2023-05-08T06:28:25.838Z,63.80
2023-05-08T06:30:54.202Z,64.90
2023-05-08T06:33:24.684Z,65.90
2023-05-08T06:35:54.391Z,67.50
2023-05-08T06:38:22.904Z,68.40
2023-05-08T06:40:51.023Z,63.30
2023-05-08T06:43:19.270Z,59.20
2023-05-08T06:46:04.516Z,56.80
2023-05-08T06:48:33.137Z,55.10
2023-05-08T06:51:01.482Z,61.50
2023-05-08T06:53:29.738Z,63.90
2023-05-08T07:01:01.053Z,64.40
2023-05-08T07:05:47.408Z,65.80
2023-05-08T07:08:15.699Z,68.10
2023-05-08T07:10:43.874Z,65.00
2023-05-08T07:13:12.350Z,61.60
2023-05-08T07:15:40.667Z,60.20
2023-05-08T07:18:09.041Z,58.10
2023-05-08T07:20:37.187Z,56.20
2023-05-08T07:23:05.502Z,55.00
2023-05-08T07:25:33.726Z,53.70
2023-05-08T07:28:01.892Z,52.70
2023-05-08T07:30:30.072Z,51.40
2023-05-08T07:32:58.324Z,57.10
2023-05-08T07:35:26.939Z,59.90
2023-05-08T07:37:55.242Z,62.40
2023-05-08T07:40:23.369Z,64.50
2023-05-08T07:42:51.547Z,65.90
2023-05-08T07:45:19.671Z,68.00
2023-05-08T07:47:54.334Z,68.40
2023-05-08T07:50:24.135Z,69.80
2023-05-08T07:52:53.248Z,71.20
2023-05-08T07:55:21.533Z,65.30
2023-05-08T07:57:49.885Z,60.00
2023-05-08T08:00:18.362Z,62.50
2023-05-08T08:02:46.935Z,65.50
2023-05-08T08:05:15.396Z,67.60
2023-05-08T08:07:43.626Z,69.40
2023-05-08T08:10:11.921Z,70.30
2023-05-08T08:12:40.187Z,71.60
2023-05-08T08:15:08.715Z,71.40
2023-05-08T08:17:37.008Z,72.40
2023-05-08T08:20:05.785Z,64.30
2023-05-08T08:22:33.924Z,60.50
2023-05-08T08:25:02.269Z,64.80
2023-05-08T08:27:30.492Z,67.60
2023-05-08T08:30:12.163Z,69.70
2023-05-08T08:32:45.296Z,71.50
2023-05-08T08:35:14.146Z,73.20
2023-05-08T08:37:43.065Z,74.10
2023-05-08T08:40:11.473Z,70.10
2023-05-08T08:42:40.824Z,64.70
2023-05-08T08:45:09.084Z,61.80
2023-05-08T08:47:37.944Z,67.20
2023-05-08T08:50:09.460Z,69.80
2023-05-08T08:52:49.889Z,70.70
2023-05-08T08:55:20.617Z,73.60
2023-05-08T08:58:27.820Z,74.70
2023-05-08T09:00:59.174Z,75.50
2023-05-08T09:03:27.869Z,67.60
2023-05-08T09:05:56.060Z,63.90
2023-05-08T09:08:26.024Z,65.60
2023-05-08T09:10:56.256Z,68.70
2023-05-08T09:13:24.731Z,70.60
2023-05-08T09:15:52.994Z,72.20
2023-05-08T09:18:21.357Z,73.90
2023-05-08T09:20:51.404Z,75.50
2023-05-08T09:23:19.992Z,71.30
2023-05-08T09:25:50.698Z,67.20
2023-05-08T09:28:29.202Z,64.60
2023-05-08T09:30:59.090Z,68.10
2023-05-08T09:33:29.579Z,71.50
2023-05-08T09:35:58.388Z,75.10
2023-05-08T09:38:41.004Z,76.70
2023-05-08T09:41:14.252Z,75.80
2023-05-08T09:43:44.617Z,70.10
2023-05-08T09:46:27.014Z,67.30
2023-05-08T09:48:59.903Z,65.00
2023-05-08T09:51:29.793Z,63.40
2023-05-08T09:54:01.989Z,60.80
2023-05-08T09:56:34.940Z,65.60
2023-05-08T09:59:04.754Z,68.60
2023-05-08T10:01:35.274Z,71.00
2023-05-08T10:04:04.531Z,73.00
2023-05-08T10:06:33.023Z,73.80
2023-05-08T10:09:15.020Z,71.30
2023-05-08T10:11:53.823Z,66.20
2023-05-08T10:14:25.956Z,63.10
2023-05-08T11:16:55.275Z,72.50
2023-05-08T11:19:27.706Z,74.70
2023-05-08T11:22:14.260Z,71.00
2023-05-08T11:25:08.023Z,66.60
2023-05-08T11:27:40.542Z,64.10
2023-05-08T11:30:34.832Z,61.70
2023-05-08T11:33:06.091Z,60.20
2023-05-08T11:36:00.309Z,58.40
2023-05-08T11:38:32.651Z,56.50
2023-05-08T11:41:01.036Z,56.00
2023-05-08T11:43:37.822Z,61.30
2023-05-08T11:46:17.959Z,63.80
2023-05-08T11:48:46.360Z,66.40
2023-05-08T11:51:17.496Z,68.50
2023-05-08T11:53:46.118Z,69.40
2023-05-08T11:56:14.822Z,63.00
2023-05-08T11:58:43.236Z,58.70
2023-05-08T12:01:11.527Z,57.30
2023-05-08T12:03:39.959Z,62.80
2023-05-08T12:06:11.437Z,65.20
2023-05-08T12:08:42.897Z,67.30
2023-05-08T12:11:11.493Z,68.80
2023-05-08T12:13:39.640Z,65.40
2023-05-08T12:16:12.155Z,60.70
2023-05-08T12:18:40.432Z,57.80
2023-05-08T12:21:11.757Z,58.20
2023-05-08T12:23:40.921Z,62.70
2023-05-08T12:26:09.363Z,65.40
2023-05-08T12:28:37.620Z,67.20
2023-05-08T12:31:06.525Z,68.90
2023-05-08T12:33:35.364Z,63.50
2023-05-08T12:36:03.134Z,59.50
2023-05-08T12:38:31.454Z,56.60
2023-05-08T12:41:02.644Z,60.30
2023-05-08T12:43:36.939Z,63.10
2023-05-08T12:46:05.663Z,65.40
2023-05-08T12:48:33.782Z,67.30
2023-05-08T12:51:05.989Z,68.40
2023-05-08T12:53:34.425Z,64.40
2023-05-08T12:56:05.316Z,60.20
2023-05-08T12:58:36.698Z,57.00
2023-05-08T13:01:13.656Z,55.10
2023-05-08T13:03:42.394Z,53.50
2023-05-08T13:06:21.467Z,52.50
2023-05-08T13:08:54.892Z,51.50
2023-05-08T13:11:33.203Z,50.90
2023-05-08T13:14:01.579Z,50.00
2023-05-08T13:16:29.953Z,49.50
2023-05-08T13:18:58.369Z,49.10
2023-05-08T13:21:27.807Z,48.60
2023-05-08T13:23:56.160Z,48.20
2023-05-08T13:26:24.363Z,47.70
2023-05-08T13:28:54.698Z,47.30
2023-05-08T13:31:24.973Z,46.70
2023-05-08T13:33:53.275Z,47.00
2023-05-08T13:36:21.506Z,47.10
2023-05-08T13:38:50.601Z,46.60
2023-05-08T13:41:18.484Z,46.50
2023-05-08T13:43:47.641Z,46.50
2023-05-08T13:46:16.134Z,46.00
2023-05-08T13:48:44.311Z,52.70
2023-05-08T13:51:12.526Z,56.20
2023-05-08T13:55:11.766Z,60.00
2023-05-08T13:57:41.359Z,61.90
2023-05-08T14:00:10.295Z,63.80
2023-05-08T14:03:55.328Z,63.30
2023-05-08T14:06:24.236Z,65.50
2023-05-08T14:08:54.427Z,62.70
2023-05-08T14:11:24.881Z,58.50
2023-05-08T14:13:53.028Z,55.90
2023-05-08T14:16:21.511Z,56.10
2023-05-08T14:18:49.702Z,61.60
2023-05-08T14:21:17.945Z,64.20
2023-05-08T14:23:46.542Z,66.20
2023-05-08T14:26:14.640Z,68.10
2023-05-08T14:28:42.899Z,61.80
2023-05-08T14:31:11.398Z,58.40
2023-05-08T14:33:39.596Z,56.10
2023-05-08T14:36:08.320Z,56.70
2023-05-08T14:38:37.777Z,61.90
2023-05-08T14:41:06.112Z,64.40
2023-05-08T14:43:34.437Z,66.50
2023-05-08T14:46:02.598Z,63.70
2023-05-08T14:48:30.898Z,59.40
2023-05-08T14:50:59.117Z,56.90
2023-05-08T14:53:27.433Z,54.70
2023-05-08T14:55:59.140Z,53.30
2023-05-08T14:58:27.480Z,58.70
2023-05-08T15:00:55.695Z,62.30
2023-05-08T15:03:24.107Z,64.80
2023-05-08T15:05:52.433Z,63.50
2023-05-08T15:08:20.666Z,59.20
2023-05-08T15:10:48.861Z,56.90
2023-05-08T15:13:17.222Z,54.80
2023-05-08T15:15:45.381Z,53.20
2023-05-08T15:18:16.898Z,51.80
2023-05-08T15:20:45.128Z,51.10
2023-05-08T15:23:13.458Z,50.20
2023-05-08T15:25:41.770Z,54.00
2023-05-08T15:28:10.142Z,58.90
2023-05-08T15:30:38.697Z,62.00
2023-05-08T15:33:06.851Z,64.10
2023-05-08T15:35:35.180Z,58.30
2023-05-08T15:38:03.521Z,56.00
2023-05-08T15:40:31.993Z,54.10
2023-05-08T15:43:00.560Z,52.50
2023-05-08T15:45:28.863Z,51.50
2023-05-08T15:47:57.194Z,50.30
2023-05-08T15:50:25.739Z,49.30
2023-05-08T15:52:54.340Z,54.50
2023-05-08T15:55:23.423Z,58.00
2023-05-08T15:57:51.904Z,60.70
2023-05-08T16:00:22.965Z,62.90
2023-05-08T16:02:51.839Z,59.50
2023-05-08T16:05:20.133Z,54.70
2023-05-08T16:07:48.478Z,52.60
2023-05-08T16:10:16.730Z,57.40
2023-05-08T16:12:45.092Z,60.00
2023-05-08T16:15:13.680Z,61.50
2023-05-08T16:17:42.246Z,62.90
2023-05-08T16:20:13.804Z,60.90
2023-05-08T16:22:42.240Z,55.70
2023-05-08T16:25:10.782Z,52.30
2023-05-08T16:27:39.315Z,57.80
2023-05-08T16:30:08.373Z,60.20
2023-05-08T16:32:36.676Z,61.60
2023-05-08T16:35:05.135Z,62.40
2023-05-08T16:37:33.742Z,61.80
2023-05-08T16:40:02.098Z,55.90
2023-05-08T16:42:30.435Z,52.30
2023-05-08T16:44:58.576Z,55.10
2023-05-08T16:47:26.885Z,59.10
2023-05-08T16:49:55.118Z,61.40
2023-05-08T16:52:23.426Z,62.60
2023-05-08T16:54:51.527Z,59.70
2023-05-08T16:57:19.842Z,54.90
2023-05-08T16:59:49.724Z,51.50
2023-05-08T17:02:18.604Z,55.30
2023-05-08T17:04:48.422Z,58.60
2023-05-08T17:07:17.261Z,60.60
2023-05-08T17:09:46.178Z,61.20
2023-05-08T17:12:14.426Z,57.90
2023-05-08T17:14:42.956Z,53.20
2023-05-08T17:17:11.147Z,50.00
2023-05-08T17:19:39.338Z,54.40
2023-05-08T17:22:07.646Z,57.70
2023-05-08T17:26:27.652Z,59.20
2023-05-08T17:28:55.830Z,59.80
2023-05-08T17:31:24.034Z,56.70
2023-05-08T17:33:52.355Z,53.10
2023-05-08T17:36:20.472Z,50.30
2023-05-08T17:38:48.836Z,50.50
2023-05-08T17:41:17.055Z,55.90
2023-05-08T17:43:45.229Z,58.40
2023-05-08T17:46:13.559Z,60.20
2023-05-08T17:48:41.992Z,57.50
2023-05-08T17:51:13.218Z,52.50
2023-05-08T17:53:41.707Z,50.20
2023-05-08T17:56:09.884Z,52.60
2023-05-08T17:58:38.160Z,56.40
2023-05-08T18:01:07.467Z,58.20
2023-05-08T18:03:35.919Z,56.60
2023-05-08T18:06:04.098Z,51.80
2023-05-08T18:08:33.910Z,48.50
2023-05-08T18:11:02.306Z,50.40
2023-05-08T18:13:30.410Z,55.20
2023-05-08T18:15:58.754Z,56.20
2023-05-08T18:18:27.176Z,54.90
2023-05-08T18:20:55.609Z,50.70
2023-05-08T18:23:24.104Z,47.80
2023-05-08T18:25:52.264Z,47.90
2023-05-08T18:28:20.513Z,53.10
2023-05-08T18:30:49.158Z,55.50
2023-05-08T18:33:17.285Z,53.90
2023-05-08T18:35:45.553Z,50.50
2023-05-08T18:38:13.785Z,48.00
2023-05-08T18:40:42.236Z,45.80
2023-05-08T18:43:10.718Z,51.40
2023-05-08T18:45:40.472Z,54.30
2023-05-08T18:48:10.066Z,52.70
2023-05-08T18:50:41.428Z,49.50
2023-05-08T18:53:10.061Z,47.30
2023-05-08T18:55:38.248Z,46.90
2023-05-08T18:58:06.644Z,52.60
2023-05-08T19:00:34.977Z,52.90
2023-05-08T19:03:03.442Z,51.40
2023-05-08T19:05:31.979Z,47.60
2023-05-08T19:08:00.549Z,45.10
2023-05-08T19:10:28.829Z,46.90
2023-05-08T19:12:57.238Z,52.20
2023-05-08T19:15:25.894Z,51.30
2023-05-08T19:17:55.711Z,49.30
2023-05-08T19:20:24.045Z,47.20
2023-05-08T19:22:52.296Z,45.70
2023-05-08T19:25:20.680Z,46.80
2023-05-08T19:27:49.324Z,52.30
2023-05-08T19:30:17.795Z,51.70
2023-05-08T19:32:45.992Z,50.30
2023-05-08T19:35:14.104Z,47.10
2023-05-08T19:37:42.604Z,45.20
2023-05-08T19:40:11.591Z,48.00
2023-05-08T19:42:39.918Z,52.40
2023-05-08T19:45:08.614Z,51.10
2023-05-08T19:47:36.498Z,48.70
2023-05-08T19:50:05.509Z,46.10
2023-05-08T19:52:33.977Z,44.60
2023-05-08T19:55:02.222Z,48.00
2023-05-08T19:57:30.409Z,51.90
2023-05-08T19:59:58.619Z,50.10
2023-05-08T20:02:27.259Z,48.00
2023-05-08T20:05:21.207Z,45.30
2023-05-08T20:07:43.763Z,44.10
2023-05-08T20:10:12.587Z,49.30
2023-05-08T20:12:41.316Z,50.90
2023-05-08T20:15:10.246Z,48.60
2023-05-08T20:17:38.871Z,46.70
2023-05-08T20:20:07.486Z,44.30
2023-05-08T20:22:36.006Z,43.00
2023-05-08T20:25:04.927Z,49.40
2023-05-08T20:27:33.351Z,49.70
2023-05-08T20:30:01.651Z,47.20
2023-05-08T20:32:30.103Z,45.00
2023-05-08T20:34:58.296Z,43.40
2023-05-08T20:37:26.857Z,44.90
2023-05-08T20:39:55.119Z,49.20
2023-05-08T20:42:23.423Z,47.40
2023-05-08T20:44:51.550Z,45.10
2023-05-08T20:47:19.748Z,43.60
2023-05-08T20:49:48.029Z,42.00
2023-05-08T20:52:16.372Z,47.30
2023-05-08T20:54:44.608Z,48.40
2023-05-08T20:57:13.592Z,46.70
2023-05-08T20:59:42.167Z,44.40
2023-05-08T21:02:10.433Z,42.90
2023-05-08T21:04:38.773Z,43.30
2023-05-08T21:07:07.325Z,47.90
2023-05-08T21:09:35.601Z,46.30
2023-05-08T21:12:04.024Z,44.10
2023-05-08T21:14:32.240Z,42.70
2023-05-08T21:17:00.629Z,41.30
2023-05-08T21:19:28.969Z,46.70
2023-05-08T21:21:57.367Z,48.00
2023-05-08T21:24:25.892Z,45.80
2023-05-08T21:26:54.341Z,43.90
2023-05-08T21:29:22.645Z,42.10
2023-05-08T21:31:51.005Z,41.70
2023-05-08T21:34:19.229Z,47.40
2023-05-08T21:36:47.685Z,46.60
2023-05-08T21:39:19.942Z,44.90
2023-05-08T21:41:48.343Z,42.60
2023-05-08T21:44:16.755Z,42.60
2023-05-08T21:46:45.234Z,46.90
2023-05-08T21:49:13.385Z,48.60
2023-05-08T21:51:41.590Z,48.00
2023-05-08T21:54:10.252Z,45.20
2023-05-08T21:56:38.577Z,44.00
2023-05-08T21:59:08.237Z,43.50
2023-05-08T22:01:36.564Z,42.60
2023-05-08T22:04:04.951Z,49.10
2023-05-08T22:06:33.200Z,52.60
2023-05-08T22:09:01.346Z,52.60
2023-05-08T22:11:29.686Z,49.90
2023-05-08T22:13:57.899Z,47.40
2023-05-08T22:16:26.353Z,46.20
2023-05-08T22:18:54.498Z,45.20
2023-05-08T22:21:22.812Z,46.10
2023-05-08T22:23:51.039Z,53.00
2023-05-08T22:26:19.356Z,55.80
2023-05-08T22:28:47.507Z,56.70
2023-05-08T22:31:15.810Z,52.30
2023-05-08T22:33:44.189Z,49.40
2023-05-08T22:36:12.733Z,48.00
2023-05-08T22:38:41.117Z,46.90
2023-05-08T22:41:09.738Z,46.50
2023-05-08T22:43:38.258Z,50.80
2023-05-08T22:46:07.185Z,55.10
2023-05-08T22:48:35.429Z,57.70
2023-05-08T22:51:03.757Z,59.60
2023-05-08T22:53:31.984Z,54.50
2023-05-08T22:56:00.347Z,51.70
2023-05-08T22:58:28.425Z,49.70
2023-05-08T23:02:13.817Z,47.30
2023-05-08T23:04:42.031Z,53.50
2023-05-08T23:07:10.161Z,57.10
2023-05-08T23:09:38.443Z,58.80
2023-05-08T23:12:06.962Z,53.20
2023-05-08T23:14:35.156Z,50.70
2023-05-08T23:17:03.461Z,48.90
2023-05-08T23:19:31.799Z,48.00
2023-05-08T23:21:59.915Z,47.00
2023-05-08T23:24:28.385Z,46.50
2023-05-08T23:26:56.428Z,45.50
2023-05-08T23:29:24.792Z,45.20
2023-05-08T23:31:53.093Z,44.60
2023-05-08T23:34:21.548Z,44.20
2023-05-08T23:36:49.713Z,43.80
2023-05-08T23:39:18.121Z,43.30
2023-05-08T23:41:46.211Z,43.00
2023-05-08T23:44:15.036Z,42.60
2023-05-08T23:46:42.956Z,42.50
2023-05-08T23:49:11.304Z,42.00
2023-05-08T23:51:39.437Z,42.00
2023-05-08T23:54:07.959Z,41.70
2023-05-08T23:56:36.118Z,41.50
2023-05-08T23:59:04.540Z,41.30
